Sea Cloud II — 9HUE6 — position and weather

sailwx.info

Track history (hours):
 
Tides and Currents Weather Stations Pressure Air Temp Water Temp Dewpoint Dewpoint Depression Visibility Wind Speed Wind Dir Waves Ship Positions

Sea Cloud II

Ship's website: http://www.seacloud.com/en/the-ships/sea-cloud-ii.html

Last reported at 2015-May-23 20:31 UTC. Time now 2015-May-25 21:21 UTC.
Position N 41°15' W 008°51'.

Length 117 m; draft 6 m.

Type: Passenger vessel. MMSI: 248953000.

Date/timePositionNaut miles runAvg speedWind from/ knotsBaromVisibWave heightAir tempDewpointWater temp
2015-May-23 20:31N 41°15' W 008°51'8 8.1
2015-May-23 19:33N 41°11' W 008°42'73 4.9
2015-May-23 04:33N 40°05' W 009°26'9 9.4
2015-May-23 03:33N 39°57' W 009°32'9 8.8
2015-May-23 02:32N 39°49' W 009°36'34 8.6
2015-May-22 22:33N 39°15' W 009°43'9 9.0
2015-May-22 21:33N 39°06' W 009°42'9 9.4
2015-May-22 20:33N 38°56' W 009°42'9 9.4
2015-May-22 19:33N 38°47' W 009°42'8 8.4
2015-May-22 18:33N 38°39' W 009°38'10 9.9
2015-May-22 17:33N 38°37' W 009°26'10 9.7
2015-May-22 16:33N 38°41' W 009°14'4 3.4
2015-May-22 15:28N 38°42' W 009°10'0 0.0
2015-May-22 14:19N 38°42' W 009°10'0 0.0
2015-May-22 12:04N 38°42' W 009°10'0 0.0
2015-May-22 11:10N 38°42' W 009°10'0 0.0
2015-May-22 09:22N 38°42' W 009°10'0 0.0
2015-May-22 08:28N 38°42' W 009°10'0 0.0
2015-May-22 07:28N 38°42' W 009°10'0 0.1
2015-May-22 06:33N 38°42' W 009°10'4 4.3
2015-May-22 05:34N 38°41' W 009°15'6 5.8
2015-May-22 04:33N 38°38' W 009°21'5 5.4
2015-May-22 03:33N 38°33' W 009°23'6 6.2
2015-May-22 02:33N 38°27' W 009°21'8 8.0
2015-May-22 01:33N 38°19' W 009°18'9 8.5
2015-May-22 00:33N 38°10' W 009°17'10 9.5
2015-May-21 23:33N 38°01' W 009°16'1110.6
2015-May-21 22:33N 37°51' W 009°19'9 9.4
2015-May-21 21:33N 37°41' W 009°20'9 9.1
2015-May-21 20:33N 37°32' W 009°22'9 8.9
2015-May-21 19:33N 37°23' W 009°21'9 9.0
2015-May-21 18:33N 37°14' W 009°22'11 9.6
2015-May-21 17:27N 37°04' W 009°22'9 9.8
2015-May-21 16:33N 36°55' W 009°20'1110.2
2015-May-21 15:30N 36°47' W 009°12'2010.3
2015-May-21 13:33N 36°44' W 008°47'5 1.8
2015-May-21 10:31N 36°42' W 008°40'6 1.9
2015-May-21 07:31N 36°42' W 008°33'6 6.0
2015-May-21 06:33N 36°41' W 008°26'7 7.0
2015-May-21 05:33N 36°41' W 008°18'7 7.0
2015-May-21 04:33N 36°40' W 008°09'8 7.8
2015-May-21 03:33N 36°39' W 007°59'128 5.3
2015-May-20 03:33N 35°60' W 005°28'8 8.3
2015-May-20 02:33N 36°03' W 005°19'128 4.4
2015-May-18 21:20N 36°25' W 002°42'911.3
2015-May-18 20:31N 36°25' W 002°31'1312.0
2015-May-18 19:28N 36°26' W 002°15'1311.5
2015-May-18 18:20N 36°35' W 002°03'1112.1
2015-May-18 17:23N 36°44' W 001°55'1012.1
2015-May-18 16:33N 36°52' W 001°48'44 5.9
2015-May-18 09:04N 37°20' W 001°04'3 6.4
2015-May-18 08:32N 37°21' W 000°60'7 6.0
2015-May-18 07:27N 37°24' W 000°53'5 5.3
2015-May-18 06:33N 37°27' W 000°48'10 8.4
2015-May-18 05:23N 37°32' W 000°37'911.2
2015-May-18 04:33N 37°39' W 000°30'1111.5
2015-May-18 03:33N 37°49' W 000°22'1211.8
2015-May-18 02:33N 37°59' W 000°14'1611.3
2015-May-18 01:07N 38°13' W 000°03'811.1
2015-May-18 00:24N 38°19' E 000°03'69 9.7
2015-May-17 17:14N 39°26' W 000°19'1 1.5
2015-May-17 16:31N 39°27' W 000°19'0 0.0
2015-May-17 15:28N 39°27' W 000°19'0 0.0
2015-May-17 14:28N 39°27' W 000°19'0 0.0
2015-May-17 13:28N 39°27' W 000°19'0 0.0
2015-May-17 12:22N 39°27' W 000°19'0 0.0
2015-May-17 11:19N 39°27' W 000°19'2 2.4
2015-May-17 10:33N 39°26' W 000°18'75 6.6
2015-May-16 23:11N 39°26' E 001°20'710.8
2015-May-16 22:33N 39°26' E 001°28'2110.3
2015-May-16 20:33N 39°26' E 001°55'1010.4
2015-May-16 19:33N 39°26' E 002°09'1010.2
2015-May-16 18:33N 39°26' E 002°22'11 9.9
2015-May-16 17:28N 39°28' E 002°35'6 5.8
2015-May-16 16:29N 39°33' E 002°38'0 0.0
2015-May-16 15:32N 39°33' E 002°38'0 0.0
2015-May-16 14:33N 39°33' E 002°38'0 0.0
2015-May-16 13:32N 39°33' E 002°38'  
Track history (hours):
 
Tides and Currents Weather Stations Pressure Air Temp Water Temp Dewpoint Dewpoint Depression Visibility Wind Speed Wind Dir Waves Ship Positions

Sea Cloud II

Ship's website: http://www.seacloud.com/en/the-ships/sea-cloud-ii.html

Last reported at 2015-May-23 20:31 UTC. Time now 2015-May-25 21:21 UTC.
Position N 41°15' W 008°51'.

Length 117 m; draft 6 m.

Type: Passenger vessel. MMSI: 248953000.

Date/timePositionNaut miles runAvg speedWind from/ knotsBaromVisibWave heightAir tempDewpointWater temp
2015-May-23 20:31N 41°15' W 008°51'8 8.1
2015-May-23 19:33N 41°11' W 008°42'73 4.9
2015-May-23 04:33N 40°05' W 009°26'9 9.4
2015-May-23 03:33N 39°57' W 009°32'9 8.8
2015-May-23 02:32N 39°49' W 009°36'34 8.6
2015-May-22 22:33N 39°15' W 009°43'9 9.0
2015-May-22 21:33N 39°06' W 009°42'9 9.4
2015-May-22 20:33N 38°56' W 009°42'9 9.4
2015-May-22 19:33N 38°47' W 009°42'8 8.4
2015-May-22 18:33N 38°39' W 009°38'10 9.9
2015-May-22 17:33N 38°37' W 009°26'10 9.7
2015-May-22 16:33N 38°41' W 009°14'4 3.4
2015-May-22 15:28N 38°42' W 009°10'0 0.0
2015-May-22 14:19N 38°42' W 009°10'0 0.0
2015-May-22 12:04N 38°42' W 009°10'0 0.0
2015-May-22 11:10N 38°42' W 009°10'0 0.0
2015-May-22 09:22N 38°42' W 009°10'0 0.0
2015-May-22 08:28N 38°42' W 009°10'0 0.0
2015-May-22 07:28N 38°42' W 009°10'0 0.1
2015-May-22 06:33N 38°42' W 009°10'4 4.3
2015-May-22 05:34N 38°41' W 009°15'6 5.8
2015-May-22 04:33N 38°38' W 009°21'5 5.4
2015-May-22 03:33N 38°33' W 009°23'6 6.2
2015-May-22 02:33N 38°27' W 009°21'8 8.0
2015-May-22 01:33N 38°19' W 009°18'9 8.5
2015-May-22 00:33N 38°10' W 009°17'10 9.5
2015-May-21 23:33N 38°01' W 009°16'1110.6
2015-May-21 22:33N 37°51' W 009°19'9 9.4
2015-May-21 21:33N 37°41' W 009°20'9 9.1
2015-May-21 20:33N 37°32' W 009°22'9 8.9
2015-May-21 19:33N 37°23' W 009°21'9 9.0
2015-May-21 18:33N 37°14' W 009°22'11 9.6
2015-May-21 17:27N 37°04' W 009°22'9 9.8
2015-May-21 16:33N 36°55' W 009°20'1110.2
2015-May-21 15:30N 36°47' W 009°12'2010.3
2015-May-21 13:33N 36°44' W 008°47'5 1.8
2015-May-21 10:31N 36°42' W 008°40'6 1.9
2015-May-21 07:31N 36°42' W 008°33'6 6.0
2015-May-21 06:33N 36°41' W 008°26'7 7.0
2015-May-21 05:33N 36°41' W 008°18'7 7.0
2015-May-21 04:33N 36°40' W 008°09'8 7.8
2015-May-21 03:33N 36°39' W 007°59'128 5.3
2015-May-20 03:33N 35°60' W 005°28'8 8.3
2015-May-20 02:33N 36°03' W 005°19'128 4.4
2015-May-18 21:20N 36°25' W 002°42'911.3
2015-May-18 20:31N 36°25' W 002°31'1312.0
2015-May-18 19:28N 36°26' W 002°15'1311.5
2015-May-18 18:20N 36°35' W 002°03'1112.1
2015-May-18 17:23N 36°44' W 001°55'1012.1
2015-May-18 16:33N 36°52' W 001°48'44 5.9
2015-May-18 09:04N 37°20' W 001°04'3 6.4
2015-May-18 08:32N 37°21' W 000°60'7 6.0
2015-May-18 07:27N 37°24' W 000°53'5 5.3
2015-May-18 06:33N 37°27' W 000°48'10 8.4
2015-May-18 05:23N 37°32' W 000°37'911.2
2015-May-18 04:33N 37°39' W 000°30'1111.5
2015-May-18 03:33N 37°49' W 000°22'1211.8
2015-May-18 02:33N 37°59' W 000°14'1611.3
2015-May-18 01:07N 38°13' W 000°03'811.1
2015-May-18 00:24N 38°19' E 000°03'69 9.7
2015-May-17 17:14N 39°26' W 000°19'1 1.5
2015-May-17 16:31N 39°27' W 000°19'0 0.0
2015-May-17 15:28N 39°27' W 000°19'0 0.0
2015-May-17 14:28N 39°27' W 000°19'0 0.0
2015-May-17 13:28N 39°27' W 000°19'0 0.0
2015-May-17 12:22N 39°27' W 000°19'0 0.0
2015-May-17 11:19N 39°27' W 000°19'2 2.4
2015-May-17 10:33N 39°26' W 000°18'75 6.6
2015-May-16 23:11N 39°26' E 001°20'710.8
2015-May-16 22:33N 39°26' E 001°28'2110.3
2015-May-16 20:33N 39°26' E 001°55'1010.4
2015-May-16 19:33N 39°26' E 002°09'1010.2
2015-May-16 18:33N 39°26' E 002°22'11 9.9
2015-May-16 17:28N 39°28' E 002°35'6 5.8
2015-May-16 16:29N 39°33' E 002°38'0 0.0
2015-May-16 15:32N 39°33' E 002°38'0 0.0
2015-May-16 14:33N 39°33' E 002°38'0 0.0
2015-May-16 13:32N 39°33' E 002°38'  

Dump ship's entire track history